Aviation Digital Data Service (ADDS)

Output produced by METARs form (0142 UTC 20 February 2018)
found at http://www.aviationweather.gov/adds/metars/
 
METAR text: RJFU 200100Z 32009KT CAVOK 10/02 Q1020
Conditions at: RJFU (NAGASAKI(CIV/JMS, JP) observed 0100 UTC 20 February 2018
Temperature: 10.0°C (50°F)
Dewpoint: 2.0°C (36°F) [RH = 57%]
Pressure (altimeter): 30.12 inches Hg (1020.0 mb)
Winds: from the NW (320 degrees) at 10 MPH (9 knots; 4.7 m/s)
Visibility: 6 or more miles (10+ km)
Ceiling: ceiling and visibility are OK
Clouds: unknown
Weather: no significant weather observed at this time

METAR text: RJFU 200000Z VRB01KT CAVOK 07/03 Q1020
Conditions at: RJFU (NAGASAKI(CIV/JMS, JP) observed 0000 UTC 20 February 2018
Temperature: 7.0°C (45°F)
Dewpoint: 3.0°C (37°F) [RH = 76%]
Pressure (altimeter): 30.12 inches Hg (1020.0 mb)
Winds: variable direction winds at 1 MPH (1 knots; 0.5 m/s)
Visibility: 6 or more miles (10+ km)
Ceiling: ceiling and visibility are OK
Clouds: unknown
Weather: no significant weather observed at this time

METAR text: RJFU 192300Z 07004KT CAVOK 03/03 Q1020
Conditions at: RJFU (NAGASAKI(CIV/JMS, JP) observed 2300 UTC 19 February 2018
Temperature: 3.0°C (37°F)
Dewpoint: 3.0°C (37°F) [RH = 100%]
Pressure (altimeter): 30.12 inches Hg (1020.0 mb)
Winds: from the ENE (70 degrees) at 5 MPH (4 knots; 2.1 m/s)
Visibility: 6 or more miles (10+ km)
Ceiling: ceiling and visibility are OK
Clouds: unknown
Weather: no significant weather observed at this time

METAR text: RJFU 192200Z 14003KT CAVOK 03/02 Q1018
Conditions at: RJFU (NAGASAKI(CIV/JMS, JP) observed 2200 UTC 19 February 2018
Temperature: 3.0°C (37°F)
Dewpoint: 2.0°C (36°F) [RH = 93%]
Pressure (altimeter): 30.06 inches Hg (1018.0 mb)
Winds: from the SE (140 degrees) at 3 MPH (3 knots; 1.6 m/s)
Visibility: 6 or more miles (10+ km)
Ceiling: ceiling and visibility are OK
Clouds: unknown
Weather: no significant weather observed at this time

METAR text: RJFU 192110Z 10003KT 8000 NSC 01/01 Q1019 RMK A3009
Conditions at: RJFU (NAGASAKI(CIV/JMS, JP) observed 2110 UTC 19 February 2018
Temperature: 1.0°C (34°F)
Dewpoint: 1.0°C (34°F) [RH = 100%]
Pressure (altimeter): 30.09 inches Hg (1019.0 mb)
Winds: from the E (100 degrees) at 3 MPH (3 knots; 1.6 m/s)
Visibility: 5 miles (8 km)
Ceiling: at least 12,000 feet AGL
Clouds: sky clear below 12,000 feet AGL
Weather: no significant weather observed at this time

METAR text: RJFU 191200Z 17004KT 140V220 9999 -RA FEW008 SCT050 BKN060 07/06 Q1018
Conditions at: RJFU (NAGASAKI(CIV/JMS, JP) observed 1200 UTC 19 February 2018
Temperature: 7.0°C (45°F)
Dewpoint: 6.0°C (43°F) [RH = 93%]
Pressure (altimeter): 30.06 inches Hg (1018.0 mb)
Winds: from the S (170 degrees) at 5 MPH (4 knots; 2.1 m/s)
Visibility: 6 or more miles (10+ km)
Ceiling: 6000 feet AGL
Clouds: few clouds at 800 feet AGL
scattered clouds at 5000 feet AGL
broken clouds at 6000 feet AGL
Weather: -RA  (light rain)

METAR text: RJFU 191100Z 35004KT 9999 -RA FEW008 SCT040 BKN060 07/06 Q1018
Conditions at: RJFU (NAGASAKI(CIV/JMS, JP) observed 1100 UTC 19 February 2018
Temperature: 7.0°C (45°F)
Dewpoint: 6.0°C (43°F) [RH = 93%]
Pressure (altimeter): 30.06 inches Hg (1018.0 mb)
Winds: from the N (350 degrees) at 5 MPH (4 knots; 2.1 m/s)
Visibility: 6 or more miles (10+ km)
Ceiling: 6000 feet AGL
Clouds: few clouds at 800 feet AGL
scattered clouds at 4000 feet AGL
broken clouds at 6000 feet AGL
Weather: -RA  (light rain)

METAR text: RJFU 191000Z 01003KT 9999 -RA FEW008 BKN045 BKN060 08/05 Q1018
Conditions at: RJFU (NAGASAKI(CIV/JMS, JP) observed 1000 UTC 19 February 2018
Temperature: 8.0°C (46°F)
Dewpoint: 5.0°C (41°F) [RH = 81%]
Pressure (altimeter): 30.06 inches Hg (1018.0 mb)
Winds: from the N (10 degrees) at 3 MPH (3 knots; 1.6 m/s)
Visibility: 6 or more miles (10+ km)
Ceiling: 4500 feet AGL
Clouds: few clouds at 800 feet AGL
broken clouds at 4500 feet AGL
broken clouds at 6000 feet AGL
Weather: -RA  (light rain)

METAR text: RJFU 190900Z 28005KT 9999 -RA FEW008 BKN040 BKN060 07/06 Q1017
Conditions at: RJFU (NAGASAKI(CIV/JMS, JP) observed 0900 UTC 19 February 2018
Temperature: 7.0°C (45°F)
Dewpoint: 6.0°C (43°F) [RH = 93%]
Pressure (altimeter): 30.03 inches Hg (1017.0 mb)
Winds: from the W (280 degrees) at 6 MPH (5 knots; 2.6 m/s)
Visibility: 6 or more miles (10+ km)
Ceiling: 4000 feet AGL
Clouds: few clouds at 800 feet AGL
broken clouds at 4000 feet AGL
broken clouds at 6000 feet AGL
Weather: -RA  (light rain)

METAR text: RJFU 190800Z 13004KT 9999 -RA FEW008 BKN040 BKN060 07/06 Q1017
Conditions at: RJFU (NAGASAKI(CIV/JMS, JP) observed 0800 UTC 19 February 2018
Temperature: 7.0°C (45°F)
Dewpoint: 6.0°C (43°F) [RH = 93%]
Pressure (altimeter): 30.03 inches Hg (1017.0 mb)
Winds: from the SE (130 degrees) at 5 MPH (4 knots; 2.1 m/s)
Visibility: 6 or more miles (10+ km)
Ceiling: 4000 feet AGL
Clouds: few clouds at 800 feet AGL
broken clouds at 4000 feet AGL
broken clouds at 6000 feet AGL
Weather: -RA  (light rain)

METAR text: RJFU 190700Z VRB02KT 9999 -RA FEW006 BKN035 BKN060 08/05 Q1017
Conditions at: RJFU (NAGASAKI(CIV/JMS, JP) observed 0700 UTC 19 February 2018
Temperature: 8.0°C (46°F)
Dewpoint: 5.0°C (41°F) [RH = 81%]
Pressure (altimeter): 30.03 inches Hg (1017.0 mb)
Winds: variable direction winds at 2 MPH (2 knots; 1.0 m/s)
Visibility: 6 or more miles (10+ km)
Ceiling: 3500 feet AGL
Clouds: few clouds at 600 feet AGL
broken clouds at 3500 feet AGL
broken clouds at 6000 feet AGL
Weather: -RA  (light rain)

METAR text: RJFU 190600Z VRB02KT 9999 -RA FEW008 BKN035 BKN060 08/05 Q1017
Conditions at: RJFU (NAGASAKI(CIV/JMS, JP) observed 0600 UTC 19 February 2018
Temperature: 8.0°C (46°F)
Dewpoint: 5.0°C (41°F) [RH = 81%]
Pressure (altimeter): 30.03 inches Hg (1017.0 mb)
Winds: variable direction winds at 2 MPH (2 knots; 1.0 m/s)
Visibility: 6 or more miles (10+ km)
Ceiling: 3500 feet AGL
Clouds: few clouds at 800 feet AGL
broken clouds at 3500 feet AGL
broken clouds at 6000 feet AGL
Weather: -RA  (light rain)

METAR text: RJFU 190500Z 22004KT 200V260 9999 FEW008 BKN035 BKN060 07/05 Q1017
Conditions at: RJFU (NAGASAKI(CIV/JMS, JP) observed 0500 UTC 19 February 2018
Temperature: 7.0°C (45°F)
Dewpoint: 5.0°C (41°F) [RH = 87%]
Pressure (altimeter): 30.03 inches Hg (1017.0 mb)
Winds: from the SW (220 degrees) at 5 MPH (4 knots; 2.1 m/s)
Visibility: 6 or more miles (10+ km)
Ceiling: 3500 feet AGL
Clouds: few clouds at 800 feet AGL
broken clouds at 3500 feet AGL
broken clouds at 6000 feet AGL
Weather: no significant weather observed at this time

METAR text: RJFU 190400Z VRB01KT 9999 -RA FEW008 BKN035 BKN060 07/05 Q1018
Conditions at: RJFU (NAGASAKI(CIV/JMS, JP) observed 0400 UTC 19 February 2018
Temperature: 7.0°C (45°F)
Dewpoint: 5.0°C (41°F) [RH = 87%]
Pressure (altimeter): 30.06 inches Hg (1018.0 mb)
Winds: variable direction winds at 1 MPH (1 knots; 0.5 m/s)
Visibility: 6 or more miles (10+ km)
Ceiling: 3500 feet AGL
Clouds: few clouds at 800 feet AGL
broken clouds at 3500 feet AGL
broken clouds at 6000 feet AGL
Weather: -RA  (light rain)

METAR text: RJFU 190300Z VRB02KT 9999 -RA FEW007 BKN040 BKN060 07/05 Q1020
Conditions at: RJFU (NAGASAKI(CIV/JMS, JP) observed 0300 UTC 19 February 2018
Temperature: 7.0°C (45°F)
Dewpoint: 5.0°C (41°F) [RH = 87%]
Pressure (altimeter): 30.12 inches Hg (1020.0 mb)
Winds: variable direction winds at 2 MPH (2 knots; 1.0 m/s)
Visibility: 6 or more miles (10+ km)
Ceiling: 4000 feet AGL
Clouds: few clouds at 700 feet AGL
broken clouds at 4000 feet AGL
broken clouds at 6000 feet AGL
Weather: -RA  (light rain)

METAR text: RJFU 190200Z 21005KT 190V270 9999 -RA FEW007 SCT030 BKN060 07/05 Q1020
Conditions at: RJFU (NAGASAKI(CIV/JMS, JP) observed 0200 UTC 19 February 2018
Temperature: 7.0°C (45°F)
Dewpoint: 5.0°C (41°F) [RH = 87%]
Pressure (altimeter): 30.12 inches Hg (1020.0 mb)
Winds: from the SSW (210 degrees) at 6 MPH (5 knots; 2.6 m/s)
Visibility: 6 or more miles (10+ km)
Ceiling: 6000 feet AGL
Clouds: few clouds at 700 feet AGL
scattered clouds at 3000 feet AGL
broken clouds at 6000 feet AGL
Weather: -RA  (light rain)

METAR text: RJFU 190100Z 20004KT 9999 -RA FEW007 SCT035 BKN050 06/05 Q1021
Conditions at: RJFU (NAGASAKI(CIV/JMS, JP) observed 0100 UTC 19 February 2018
Temperature: 6.0°C (43°F)
Dewpoint: 5.0°C (41°F) [RH = 93%]
Pressure (altimeter): 30.15 inches Hg (1021.0 mb)
Winds: from the SSW (200 degrees) at 5 MPH (4 knots; 2.1 m/s)
Visibility: 6 or more miles (10+ km)
Ceiling: 5000 feet AGL
Clouds: few clouds at 700 feet AGL
scattered clouds at 3500 feet AGL
broken clouds at 5000 feet AGL
Weather: -RA  (light rain)

METAR text: RJFU 190000Z VRB01KT 9999 -RA FEW010 SCT035 BKN050 06/05 Q1021
Conditions at: RJFU (NAGASAKI(CIV/JMS, JP) observed 0000 UTC 19 February 2018
Temperature: 6.0°C (43°F)
Dewpoint: 5.0°C (41°F) [RH = 93%]
Pressure (altimeter): 30.15 inches Hg (1021.0 mb)
Winds: variable direction winds at 1 MPH (1 knots; 0.5 m/s)
Visibility: 6 or more miles (10+ km)
Ceiling: 5000 feet AGL
Clouds: few clouds at 1000 feet AGL
scattered clouds at 3500 feet AGL
broken clouds at 5000 feet AGL
Weather: -RA  (light rain)

METAR text: RJFU 182300Z VRB02KT 9999 -RA FEW010 SCT030 BKN045 06/05 Q1022
Conditions at: RJFU (NAGASAKI(CIV/JMS, JP) observed 2300 UTC 18 February 2018
Temperature: 6.0°C (43°F)
Dewpoint: 5.0°C (41°F) [RH = 93%]
Pressure (altimeter): 30.18 inches Hg (1022.0 mb)
Winds: variable direction winds at 2 MPH (2 knots; 1.0 m/s)
Visibility: 6 or more miles (10+ km)
Ceiling: 4500 feet AGL
Clouds: few clouds at 1000 feet AGL
scattered clouds at 3000 feet AGL
broken clouds at 4500 feet AGL
Weather: -RA  (light rain)

METAR text: RJFU 182200Z 19003KT 9999 -RA FEW020 SCT030 BKN040 06/05 Q1022
Conditions at: RJFU (NAGASAKI(CIV/JMS, JP) observed 2200 UTC 18 February 2018
Temperature: 6.0°C (43°F)
Dewpoint: 5.0°C (41°F) [RH = 93%]
Pressure (altimeter): 30.18 inches Hg (1022.0 mb)
Winds: from the S (190 degrees) at 3 MPH (3 knots; 1.6 m/s)
Visibility: 6 or more miles (10+ km)
Ceiling: 4000 feet AGL
Clouds: few clouds at 2000 feet AGL
scattered clouds at 3000 feet AGL
broken clouds at 4000 feet AGL
Weather: -RA  (light rain)

METAR text: RJFU 182110Z 05004KT 9999 -RA FEW020 BKN030 BKN045 06/04 Q1022 RMK 1CU020 5CU030 7SC045 A3019
Conditions at: RJFU (NAGASAKI(CIV/JMS, JP) observed 2110 UTC 18 February 2018
Temperature: 6.0°C (43°F)
Dewpoint: 4.0°C (39°F) [RH = 87%]
Pressure (altimeter): 30.18 inches Hg (1022.0 mb)
Winds: from the NE (50 degrees) at 5 MPH (4 knots; 2.1 m/s)
Visibility: 6 or more miles (10+ km)
Ceiling: 3000 feet AGL
Clouds: few clouds at 2000 feet AGL
broken clouds at 3000 feet AGL
broken clouds at 4500 feet AGL
Weather: -RA  (light rain)